sensor_id;sensor_type;location;lat;lon;timestamp;temperature;humidity
28608;DHT22;15802;45.654;13.804;2023-03-14T00:00:54;12.20;99.90
28608;DHT22;15802;45.654;13.804;2023-03-14T00:03:21;12.30;99.90
28608;DHT22;15802;45.654;13.804;2023-03-14T00:05:47;12.30;99.90
28608;DHT22;15802;45.654;13.804;2023-03-14T00:08:13;12.30;99.90
28608;DHT22;15802;45.654;13.804;2023-03-14T00:10:39;12.30;99.90
28608;DHT22;15802;45.654;13.804;2023-03-14T00:13:05;12.30;99.90
28608;DHT22;15802;45.654;13.804;2023-03-14T00:15:31;12.20;99.90
28608;DHT22;15802;45.654;13.804;2023-03-14T00:17:57;12.20;99.90
28608;DHT22;15802;45.654;13.804;2023-03-14T00:20:23;12.10;99.90
28608;DHT22;15802;45.654;13.804;2023-03-14T00:22:51;12.10;99.90
28608;DHT22;15802;45.654;13.804;2023-03-14T00:25:17;12.20;99.90
28608;DHT22;15802;45.654;13.804;2023-03-14T00:27:43;12.20;99.90
28608;DHT22;15802;45.654;13.804;2023-03-14T00:30:09;12.20;99.90
28608;DHT22;15802;45.654;13.804;2023-03-14T00:32:34;12.20;99.90
28608;DHT22;15802;45.654;13.804;2023-03-14T00:35:00;12.20;99.90
28608;DHT22;15802;45.654;13.804;2023-03-14T00:37:26;12.30;99.90
28608;DHT22;15802;45.654;13.804;2023-03-14T00:39:52;12.20;99.90
28608;DHT22;15802;45.654;13.804;2023-03-14T00:42:18;12.30;99.90
28608;DHT22;15802;45.654;13.804;2023-03-14T00:44:43;12.20;99.90
28608;DHT22;15802;45.654;13.804;2023-03-14T00:47:09;12.30;99.90
28608;DHT22;15802;45.654;13.804;2023-03-14T00:49:35;12.30;99.90
28608;DHT22;15802;45.654;13.804;2023-03-14T00:52:01;12.30;99.90
28608;DHT22;15802;45.654;13.804;2023-03-14T00:54:26;12.30;99.90
28608;DHT22;15802;45.654;13.804;2023-03-14T00:56:52;12.30;99.90
28608;DHT22;15802;45.654;13.804;2023-03-14T00:59:18;12.30;99.90
28608;DHT22;15802;45.654;13.804;2023-03-14T01:01:43;12.30;99.90
28608;DHT22;15802;45.654;13.804;2023-03-14T01:04:09;12.40;99.90
28608;DHT22;15802;45.654;13.804;2023-03-14T01:06:35;12.40;99.90
28608;DHT22;15802;45.654;13.804;2023-03-14T01:09:01;12.40;99.90
28608;DHT22;15802;45.654;13.804;2023-03-14T01:11:28;12.40;99.90
28608;DHT22;15802;45.654;13.804;2023-03-14T01:13:54;12.40;99.90
28608;DHT22;15802;45.654;13.804;2023-03-14T01:16:21;12.40;99.90
28608;DHT22;15802;45.654;13.804;2023-03-14T01:18:47;12.50;99.90
28608;DHT22;15802;45.654;13.804;2023-03-14T01:21:15;12.60;99.90
28608;DHT22;15802;45.654;13.804;2023-03-14T01:23:41;12.60;99.90
28608;DHT22;15802;45.654;13.804;2023-03-14T01:26:09;12.70;99.90
28608;DHT22;15802;45.654;13.804;2023-03-14T01:28:35;12.70;99.90
28608;DHT22;15802;45.654;13.804;2023-03-14T01:31:02;12.70;99.90
28608;DHT22;15802;45.654;13.804;2023-03-14T01:33:28;12.80;99.90
28608;DHT22;15802;45.654;13.804;2023-03-14T01:35:57;12.90;99.90
28608;DHT22;15802;45.654;13.804;2023-03-14T01:38:22;12.90;99.90
28608;DHT22;15802;45.654;13.804;2023-03-14T01:40:48;12.90;99.90
28608;DHT22;15802;45.654;13.804;2023-03-14T01:43:16;13.00;99.90
28608;DHT22;15802;45.654;13.804;2023-03-14T01:46:10;13.00;99.90
28608;DHT22;15802;45.654;13.804;2023-03-14T01:48:44;13.00;99.90
28608;DHT22;15802;45.654;13.804;2023-03-14T01:51:17;13.00;99.90
28608;DHT22;15802;45.654;13.804;2023-03-14T01:53:43;13.10;99.90
28608;DHT22;15802;45.654;13.804;2023-03-14T01:56:10;13.10;99.90
28608;DHT22;15802;45.654;13.804;2023-03-14T01:58:37;13.10;99.90
28608;DHT22;15802;45.654;13.804;2023-03-14T02:01:05;13.10;99.90
28608;DHT22;15802;45.654;13.804;2023-03-14T02:03:32;13.10;99.90
28608;DHT22;15802;45.654;13.804;2023-03-14T02:06:01;13.10;99.90
28608;DHT22;15802;45.654;13.804;2023-03-14T02:08:30;13.20;99.90
28608;DHT22;15802;45.654;13.804;2023-03-14T02:10:56;13.20;99.90
28608;DHT22;15802;45.654;13.804;2023-03-14T02:13:24;13.20;99.90
28608;DHT22;15802;45.654;13.804;2023-03-14T02:15:51;13.30;99.90
28608;DHT22;15802;45.654;13.804;2023-03-14T02:18:16;13.30;99.90
28608;DHT22;15802;45.654;13.804;2023-03-14T02:20:47;13.30;99.90
28608;DHT22;15802;45.654;13.804;2023-03-14T02:23:18;13.30;99.90
28608;DHT22;15802;45.654;13.804;2023-03-14T02:25:47;13.30;99.90
28608;DHT22;15802;45.654;13.804;2023-03-14T02:28:13;13.30;99.90
28608;DHT22;15802;45.654;13.804;2023-03-14T02:30:39;13.40;99.90
28608;DHT22;15802;45.654;13.804;2023-03-14T02:33:07;13.40;99.90
28608;DHT22;15802;45.654;13.804;2023-03-14T02:35:35;13.50;99.90
28608;DHT22;15802;45.654;13.804;2023-03-14T02:38:10;13.50;99.90
28608;DHT22;15802;45.654;13.804;2023-03-14T02:40:40;13.50;99.90
28608;DHT22;15802;45.654;13.804;2023-03-14T02:43:06;13.50;99.90
28608;DHT22;15802;45.654;13.804;2023-03-14T02:45:35;13.50;99.90
28608;DHT22;15802;45.654;13.804;2023-03-14T02:48:04;13.60;99.90
28608;DHT22;15802;45.654;13.804;2023-03-14T02:50:31;13.60;99.90
28608;DHT22;15802;45.654;13.804;2023-03-14T02:52:58;13.60;99.90
28608;DHT22;15802;45.654;13.804;2023-03-14T02:55:24;13.70;99.90
28608;DHT22;15802;45.654;13.804;2023-03-14T02:57:52;13.70;99.90
28608;DHT22;15802;45.654;13.804;2023-03-14T03:00:18;13.70;99.90
28608;DHT22;15802;45.654;13.804;2023-03-14T03:02:43;13.60;99.90
28608;DHT22;15802;45.654;13.804;2023-03-14T03:05:09;13.70;99.90
28608;DHT22;15802;45.654;13.804;2023-03-14T03:07:35;13.70;99.90
28608;DHT22;15802;45.654;13.804;2023-03-14T03:10:01;13.70;99.90
28608;DHT22;15802;45.654;13.804;2023-03-14T03:12:26;13.70;99.90
28608;DHT22;15802;45.654;13.804;2023-03-14T03:14:52;13.80;99.90
28608;DHT22;15802;45.654;13.804;2023-03-14T03:17:18;13.70;99.90
28608;DHT22;15802;45.654;13.804;2023-03-14T03:19:43;13.70;99.90
28608;DHT22;15802;45.654;13.804;2023-03-14T03:22:09;13.80;99.90
28608;DHT22;15802;45.654;13.804;2023-03-14T03:24:37;13.80;99.90
28608;DHT22;15802;45.654;13.804;2023-03-14T03:27:03;13.70;99.90
28608;DHT22;15802;45.654;13.804;2023-03-14T03:29:29;13.80;99.90
28608;DHT22;15802;45.654;13.804;2023-03-14T03:31:55;13.70;99.90
28608;DHT22;15802;45.654;13.804;2023-03-14T03:34:21;13.70;99.90
28608;DHT22;15802;45.654;13.804;2023-03-14T03:36:47;13.70;99.90
28608;DHT22;15802;45.654;13.804;2023-03-14T03:39:12;13.70;99.90
28608;DHT22;15802;45.654;13.804;2023-03-14T03:41:38;13.70;99.90
28608;DHT22;15802;45.654;13.804;2023-03-14T03:44:04;13.70;99.90
28608;DHT22;15802;45.654;13.804;2023-03-14T03:46:31;13.70;99.90
28608;DHT22;15802;45.654;13.804;2023-03-14T03:48:57;13.80;99.90
28608;DHT22;15802;45.654;13.804;2023-03-14T03:51:23;13.80;99.90
28608;DHT22;15802;45.654;13.804;2023-03-14T03:53:49;13.80;99.90
28608;DHT22;15802;45.654;13.804;2023-03-14T03:56:15;13.80;99.90
28608;DHT22;15802;45.654;13.804;2023-03-14T03:58:40;13.80;99.90
28608;DHT22;15802;45.654;13.804;2023-03-14T04:01:07;13.70;99.90
28608;DHT22;15802;45.654;13.804;2023-03-14T04:03:33;13.70;99.90
28608;DHT22;15802;45.654;13.804;2023-03-14T04:05:59;13.80;99.90
28608;DHT22;15802;45.654;13.804;2023-03-14T04:08:25;13.70;99.90
28608;DHT22;15802;45.654;13.804;2023-03-14T04:10:53;13.70;99.90
28608;DHT22;15802;45.654;13.804;2023-03-14T04:13:19;13.80;99.90
28608;DHT22;15802;45.654;13.804;2023-03-14T04:15:45;13.80;99.90
28608;DHT22;15802;45.654;13.804;2023-03-14T04:18:10;13.80;99.90
28608;DHT22;15802;45.654;13.804;2023-03-14T04:20:36;13.70;99.90
28608;DHT22;15802;45.654;13.804;2023-03-14T04:23:02;13.70;99.90
28608;DHT22;15802;45.654;13.804;2023-03-14T04:25:28;13.80;99.90
28608;DHT22;15802;45.654;13.804;2023-03-14T04:27:54;13.80;99.90
28608;DHT22;15802;45.654;13.804;2023-03-14T04:30:19;13.80;99.90
28608;DHT22;15802;45.654;13.804;2023-03-14T04:32:45;13.80;99.90
28608;DHT22;15802;45.654;13.804;2023-03-14T04:35:11;13.70;99.90
28608;DHT22;15802;45.654;13.804;2023-03-14T04:37:37;13.70;99.90
28608;DHT22;15802;45.654;13.804;2023-03-14T04:40:02;13.70;99.90
28608;DHT22;15802;45.654;13.804;2023-03-14T04:42:31;13.70;99.90
28608;DHT22;15802;45.654;13.804;2023-03-14T04:44:57;13.70;99.90
28608;DHT22;15802;45.654;13.804;2023-03-14T04:47:23;13.70;99.90
28608;DHT22;15802;45.654;13.804;2023-03-14T04:49:48;13.70;99.90
28608;DHT22;15802;45.654;13.804;2023-03-14T04:52:14;13.70;99.90
28608;DHT22;15802;45.654;13.804;2023-03-14T04:54:40;13.70;99.90
28608;DHT22;15802;45.654;13.804;2023-03-14T04:57:06;13.60;99.90
28608;DHT22;15802;45.654;13.804;2023-03-14T04:59:31;13.60;99.90
28608;DHT22;15802;45.654;13.804;2023-03-14T05:01:57;13.60;99.90
28608;DHT22;15802;45.654;13.804;2023-03-14T05:04:23;13.60;99.90
28608;DHT22;15802;45.654;13.804;2023-03-14T05:06:49;13.60;99.90
28608;DHT22;15802;45.654;13.804;2023-03-14T05:09:14;13.60;99.90
28608;DHT22;15802;45.654;13.804;2023-03-14T05:11:40;13.60;99.90
28608;DHT22;15802;45.654;13.804;2023-03-14T05:14:06;13.60;99.90
28608;DHT22;15802;45.654;13.804;2023-03-14T05:16:32;13.60;99.90
28608;DHT22;15802;45.654;13.804;2023-03-14T05:18:57;13.60;99.90
28608;DHT22;15802;45.654;13.804;2023-03-14T05:21:23;13.60;99.90
28608;DHT22;15802;45.654;13.804;2023-03-14T05:23:49;13.70;99.90
28608;DHT22;15802;45.654;13.804;2023-03-14T05:26:15;13.70;99.90
28608;DHT22;15802;45.654;13.804;2023-03-14T05:28:42;13.70;99.90
28608;DHT22;15802;45.654;13.804;2023-03-14T05:31:08;13.70;99.90
28608;DHT22;15802;45.654;13.804;2023-03-14T05:33:34;13.70;99.90
28608;DHT22;15802;45.654;13.804;2023-03-14T05:36:00;13.70;99.90
28608;DHT22;15802;45.654;13.804;2023-03-14T05:38:28;13.80;99.90
28608;DHT22;15802;45.654;13.804;2023-03-14T05:40:54;13.70;99.90
28608;DHT22;15802;45.654;13.804;2023-03-14T05:43:19;13.70;99.90
28608;DHT22;15802;45.654;13.804;2023-03-14T05:45:45;13.70;99.90
28608;DHT22;15802;45.654;13.804;2023-03-14T05:48:11;13.70;99.90
28608;DHT22;15802;45.654;13.804;2023-03-14T05:50:37;13.70;99.90
28608;DHT22;15802;45.654;13.804;2023-03-14T05:53:02;13.70;99.90
28608;DHT22;15802;45.654;13.804;2023-03-14T05:55:28;13.80;99.90
28608;DHT22;15802;45.654;13.804;2023-03-14T05:57:54;13.70;99.90
28608;DHT22;15802;45.654;13.804;2023-03-14T06:00:20;13.70;99.90
28608;DHT22;15802;45.654;13.804;2023-03-14T06:02:45;13.70;99.90
28608;DHT22;15802;45.654;13.804;2023-03-14T06:05:11;13.70;99.90
28608;DHT22;15802;45.654;13.804;2023-03-14T06:07:37;13.60;99.90
28608;DHT22;15802;45.654;13.804;2023-03-14T06:10:03;13.60;99.90
28608;DHT22;15802;45.654;13.804;2023-03-14T06:12:29;13.60;99.90
28608;DHT22;15802;45.654;13.804;2023-03-14T06:14:55;13.70;99.90
28608;DHT22;15802;45.654;13.804;2023-03-14T06:17:24;13.70;99.90
28608;DHT22;15802;45.654;13.804;2023-03-14T06:19:49;13.70;99.90
28608;DHT22;15802;45.654;13.804;2023-03-14T06:22:15;13.70;99.90
28608;DHT22;15802;45.654;13.804;2023-03-14T06:24:41;13.70;99.90
28608;DHT22;15802;45.654;13.804;2023-03-14T06:27:07;13.80;99.90
28608;DHT22;15802;45.654;13.804;2023-03-14T06:29:32;13.80;99.90
28608;DHT22;15802;45.654;13.804;2023-03-14T06:31:58;13.80;99.90
28608;DHT22;15802;45.654;13.804;2023-03-14T06:34:27;13.80;99.90
28608;DHT22;15802;45.654;13.804;2023-03-14T06:36:52;13.80;99.90
28608;DHT22;15802;45.654;13.804;2023-03-14T06:39:20;13.80;99.90
28608;DHT22;15802;45.654;13.804;2023-03-14T06:41:46;13.90;99.90
28608;DHT22;15802;45.654;13.804;2023-03-14T06:44:12;13.90;99.90
28608;DHT22;15802;45.654;13.804;2023-03-14T06:46:38;13.80;99.90
28608;DHT22;15802;45.654;13.804;2023-03-14T06:49:03;13.80;99.90
28608;DHT22;15802;45.654;13.804;2023-03-14T06:51:29;13.70;99.90
28608;DHT22;15802;45.654;13.804;2023-03-14T06:53:55;13.60;99.90
28608;DHT22;15802;45.654;13.804;2023-03-14T06:56:23;13.50;99.90
28608;DHT22;15802;45.654;13.804;2023-03-14T06:58:51;13.40;99.90
28608;DHT22;15802;45.654;13.804;2023-03-14T07:01:19;13.30;99.90
28608;DHT22;15802;45.654;13.804;2023-03-14T07:03:45;13.30;99.90
28608;DHT22;15802;45.654;13.804;2023-03-14T07:06:17;13.20;99.90
28608;DHT22;15802;45.654;13.804;2023-03-14T07:08:45;13.20;99.90
28608;DHT22;15802;45.654;13.804;2023-03-14T07:11:11;13.20;99.90
28608;DHT22;15802;45.654;13.804;2023-03-14T07:13:38;13.30;99.90
28608;DHT22;15802;45.654;13.804;2023-03-14T07:16:04;13.40;99.90
28608;DHT22;15802;45.654;13.804;2023-03-14T07:18:32;13.50;99.90
28608;DHT22;15802;45.654;13.804;2023-03-14T07:20:58;13.50;99.90
28608;DHT22;15802;45.654;13.804;2023-03-14T07:23:24;13.60;99.90
28608;DHT22;15802;45.654;13.804;2023-03-14T07:25:50;13.60;99.90
28608;DHT22;15802;45.654;13.804;2023-03-14T07:28:21;13.60;99.90
28608;DHT22;15802;45.654;13.804;2023-03-14T07:30:48;13.70;99.90
28608;DHT22;15802;45.654;13.804;2023-03-14T07:33:14;13.70;99.90
28608;DHT22;15802;45.654;13.804;2023-03-14T07:35:40;13.70;99.90
28608;DHT22;15802;45.654;13.804;2023-03-14T07:38:05;13.70;99.90
28608;DHT22;15802;45.654;13.804;2023-03-14T07:40:31;13.70;99.90
28608;DHT22;15802;45.654;13.804;2023-03-14T07:42:57;13.70;99.90
28608;DHT22;15802;45.654;13.804;2023-03-14T07:45:27;13.70;99.90
28608;DHT22;15802;45.654;13.804;2023-03-14T07:47:53;13.70;99.90
28608;DHT22;15802;45.654;13.804;2023-03-14T07:50:23;13.80;99.90
28608;DHT22;15802;45.654;13.804;2023-03-14T07:52:49;13.90;99.90
28608;DHT22;15802;45.654;13.804;2023-03-14T07:55:15;13.90;99.90
28608;DHT22;15802;45.654;13.804;2023-03-14T07:57:40;14.00;99.90
28608;DHT22;15802;45.654;13.804;2023-03-14T08:00:07;14.10;99.90
28608;DHT22;15802;45.654;13.804;2023-03-14T08:02:33;14.10;99.90
28608;DHT22;15802;45.654;13.804;2023-03-14T08:04:58;14.10;99.90
28608;DHT22;15802;45.654;13.804;2023-03-14T08:07:24;14.20;99.90
28608;DHT22;15802;45.654;13.804;2023-03-14T08:09:50;14.20;99.90
28608;DHT22;15802;45.654;13.804;2023-03-14T08:12:16;14.20;99.90
28608;DHT22;15802;45.654;13.804;2023-03-14T08:14:41;14.20;99.90
28608;DHT22;15802;45.654;13.804;2023-03-14T08:17:07;14.20;99.90
28608;DHT22;15802;45.654;13.804;2023-03-14T08:19:33;14.20;99.90
28608;DHT22;15802;45.654;13.804;2023-03-14T08:21:59;14.20;99.90
28608;DHT22;15802;45.654;13.804;2023-03-14T08:24:25;14.20;99.90
28608;DHT22;15802;45.654;13.804;2023-03-14T08:26:51;14.30;99.90
28608;DHT22;15802;45.654;13.804;2023-03-14T08:29:16;14.30;99.90
28608;DHT22;15802;45.654;13.804;2023-03-14T08:31:42;14.30;99.90
28608;DHT22;15802;45.654;13.804;2023-03-14T08:34:08;14.30;99.90
28608;DHT22;15802;45.654;13.804;2023-03-14T08:36:33;14.30;99.90
28608;DHT22;15802;45.654;13.804;2023-03-14T08:38:59;14.40;99.90
28608;DHT22;15802;45.654;13.804;2023-03-14T08:41:25;14.40;99.90
28608;DHT22;15802;45.654;13.804;2023-03-14T08:43:50;14.30;99.90
28608;DHT22;15802;45.654;13.804;2023-03-14T08:46:29;14.40;99.90
28608;DHT22;15802;45.654;13.804;2023-03-14T08:49:39;14.40;99.90
28608;DHT22;15802;45.654;13.804;2023-03-14T08:51:47;14.40;99.90
28608;DHT22;15802;45.654;13.804;2023-03-14T08:54:13;14.40;99.90
28608;DHT22;15802;45.654;13.804;2023-03-14T08:56:42;14.40;99.90
28608;DHT22;15802;45.654;13.804;2023-03-14T08:59:07;14.30;99.90
28608;DHT22;15802;45.654;13.804;2023-03-14T09:01:33;14.30;99.90
28608;DHT22;15802;45.654;13.804;2023-03-14T09:03:59;14.30;99.90
28608;DHT22;15802;45.654;13.804;2023-03-14T09:06:25;14.30;99.90
28608;DHT22;15802;45.654;13.804;2023-03-14T09:08:51;14.20;99.90
28608;DHT22;15802;45.654;13.804;2023-03-14T09:11:16;14.20;99.90
28608;DHT22;15802;45.654;13.804;2023-03-14T09:13:44;14.30;99.90
28608;DHT22;15802;45.654;13.804;2023-03-14T09:16:13;14.20;99.90
28608;DHT22;15802;45.654;13.804;2023-03-14T09:18:39;14.20;99.90
28608;DHT22;15802;45.654;13.804;2023-03-14T09:21:08;14.20;99.90
28608;DHT22;15802;45.654;13.804;2023-03-14T09:23:37;14.10;99.90
28608;DHT22;15802;45.654;13.804;2023-03-14T09:26:06;14.00;99.90
28608;DHT22;15802;45.654;13.804;2023-03-14T09:28:40;13.80;99.90
28608;DHT22;15802;45.654;13.804;2023-03-14T09:31:06;13.70;99.90
28608;DHT22;15802;45.654;13.804;2023-03-14T09:33:33;13.60;99.90
28608;DHT22;15802;45.654;13.804;2023-03-14T09:35:59;13.40;99.90
28608;DHT22;15802;45.654;13.804;2023-03-14T09:38:25;13.40;99.90
28608;DHT22;15802;45.654;13.804;2023-03-14T09:40:54;13.40;99.90
28608;DHT22;15802;45.654;13.804;2023-03-14T09:43:20;13.40;99.90
28608;DHT22;15802;45.654;13.804;2023-03-14T09:45:47;13.40;99.90
28608;DHT22;15802;45.654;13.804;2023-03-14T09:48:16;13.40;99.90
28608;DHT22;15802;45.654;13.804;2023-03-14T09:50:44;13.40;99.90
28608;DHT22;15802;45.654;13.804;2023-03-14T09:53:13;13.40;99.90
28608;DHT22;15802;45.654;13.804;2023-03-14T09:55:40;13.40;99.90
28608;DHT22;15802;45.654;13.804;2023-03-14T09:58:12;13.30;99.90
28608;DHT22;15802;45.654;13.804;2023-03-14T10:00:38;13.20;99.90
28608;DHT22;15802;45.654;13.804;2023-03-14T10:03:17;13.20;99.90
28608;DHT22;15802;45.654;13.804;2023-03-14T10:05:45;13.20;99.90
28608;DHT22;15802;45.654;13.804;2023-03-14T10:08:12;13.30;99.90
28608;DHT22;15802;45.654;13.804;2023-03-14T10:10:37;13.40;99.90
28608;DHT22;15802;45.654;13.804;2023-03-14T10:13:19;13.50;99.90
28608;DHT22;15802;45.654;13.804;2023-03-14T10:15:50;13.60;99.90
28608;DHT22;15802;45.654;13.804;2023-03-14T10:18:16;13.60;99.90
28608;DHT22;15802;45.654;13.804;2023-03-14T10:20:43;13.70;99.90
28608;DHT22;15802;45.654;13.804;2023-03-14T10:23:22;13.80;99.90
28608;DHT22;15802;45.654;13.804;2023-03-14T10:26:06;13.90;99.90
28608;DHT22;15802;45.654;13.804;2023-03-14T10:28:34;13.90;99.90
28608;DHT22;15802;45.654;13.804;2023-03-14T10:31:02;13.80;99.90
28608;DHT22;15802;45.654;13.804;2023-03-14T10:33:31;13.80;99.90
28608;DHT22;15802;45.654;13.804;2023-03-14T10:36:00;13.80;99.90
28608;DHT22;15802;45.654;13.804;2023-03-14T10:38:28;13.80;99.90
28608;DHT22;15802;45.654;13.804;2023-03-14T10:40:54;13.90;99.90
28608;DHT22;15802;45.654;13.804;2023-03-14T10:43:22;13.90;99.90
28608;DHT22;15802;45.654;13.804;2023-03-14T10:45:53;14.00;99.90
28608;DHT22;15802;45.654;13.804;2023-03-14T10:48:24;14.00;99.90
28608;DHT22;15802;45.654;13.804;2023-03-14T10:50:55;14.00;99.90
28608;DHT22;15802;45.654;13.804;2023-03-14T10:53:22;14.00;99.90
28608;DHT22;15802;45.654;13.804;2023-03-14T10:55:48;14.10;99.90
28608;DHT22;15802;45.654;13.804;2023-03-14T10:58:31;14.00;99.90
28608;DHT22;15802;45.654;13.804;2023-03-14T11:01:16;14.00;99.90
28608;DHT22;15802;45.654;13.804;2023-03-14T11:03:49;14.00;99.90
28608;DHT22;15802;45.654;13.804;2023-03-14T11:06:18;13.90;99.90
28608;DHT22;15802;45.654;13.804;2023-03-14T11:08:50;13.80;99.90
28608;DHT22;15802;45.654;13.804;2023-03-14T11:11:22;13.70;99.90
28608;DHT22;15802;45.654;13.804;2023-03-14T11:13:54;13.60;99.90
28608;DHT22;15802;45.654;13.804;2023-03-14T11:16:25;13.50;99.90
28608;DHT22;15802;45.654;13.804;2023-03-14T11:19:30;13.40;99.90
28608;DHT22;15802;45.654;13.804;2023-03-14T11:21:54;13.30;99.90
28608;DHT22;15802;45.654;13.804;2023-03-14T11:24:27;13.20;99.90
28608;DHT22;15802;45.654;13.804;2023-03-14T11:27:07;13.00;99.90
28608;DHT22;15802;45.654;13.804;2023-03-14T11:29:40;12.90;99.90
28608;DHT22;15802;45.654;13.804;2023-03-14T11:32:21;12.80;99.90
28608;DHT22;15802;45.654;13.804;2023-03-14T11:34:50;12.80;99.90
28608;DHT22;15802;45.654;13.804;2023-03-14T11:37:20;12.80;99.90
28608;DHT22;15802;45.654;13.804;2023-03-14T11:39:51;12.80;99.90
28608;DHT22;15802;45.654;13.804;2023-03-14T11:42:21;12.80;99.90
28608;DHT22;15802;45.654;13.804;2023-03-14T11:44:48;12.80;99.90
28608;DHT22;15802;45.654;13.804;2023-03-14T11:47:19;12.80;99.90
28608;DHT22;15802;45.654;13.804;2023-03-14T11:49:58;12.80;99.90
28608;DHT22;15802;45.654;13.804;2023-03-14T11:52:28;12.80;99.90
28608;DHT22;15802;45.654;13.804;2023-03-14T11:55:13;12.90;99.90
28608;DHT22;15802;45.654;13.804;2023-03-14T11:57:42;12.90;99.90
28608;DHT22;15802;45.654;13.804;2023-03-14T12:00:13;13.00;99.90
28608;DHT22;15802;45.654;13.804;2023-03-14T12:05:32;13.00;99.90
28608;DHT22;15802;45.654;13.804;2023-03-14T12:08:17;13.10;99.90
28608;DHT22;15802;45.654;13.804;2023-03-14T12:10:46;13.10;99.90
28608;DHT22;15802;45.654;13.804;2023-03-14T12:13:13;13.20;99.90
28608;DHT22;15802;45.654;13.804;2023-03-14T12:15:42;13.20;99.90
28608;DHT22;15802;45.654;13.804;2023-03-14T12:18:28;13.30;99.90
28608;DHT22;15802;45.654;13.804;2023-03-14T12:20:56;13.30;99.90
28608;DHT22;15802;45.654;13.804;2023-03-14T12:23:22;13.40;99.90
28608;DHT22;15802;45.654;13.804;2023-03-14T12:25:51;13.40;99.90
28608;DHT22;15802;45.654;13.804;2023-03-14T12:28:32;13.40;99.90
28608;DHT22;15802;45.654;13.804;2023-03-14T12:31:12;13.40;99.90
28608;DHT22;15802;45.654;13.804;2023-03-14T12:34:00;13.50;99.90
28608;DHT22;15802;45.654;13.804;2023-03-14T12:36:48;13.40;99.90
28608;DHT22;15802;45.654;13.804;2023-03-14T12:42:01;13.40;99.90
28608;DHT22;15802;45.654;13.804;2023-03-14T12:44:38;13.40;99.90
28608;DHT22;15802;45.654;13.804;2023-03-14T12:50:11;13.40;99.90
28608;DHT22;15802;45.654;13.804;2023-03-14T12:52:45;13.40;99.90
28608;DHT22;15802;45.654;13.804;2023-03-14T12:55:17;13.40;99.90
28608;DHT22;15802;45.654;13.804;2023-03-14T13:00:31;13.30;99.90
28608;DHT22;15802;45.654;13.804;2023-03-14T13:05:54;13.20;99.90
28608;DHT22;15802;45.654;13.804;2023-03-14T13:11:05;13.30;99.90
28608;DHT22;15802;45.654;13.804;2023-03-14T13:13:33;13.30;99.90
28608;DHT22;15802;45.654;13.804;2023-03-14T13:16:00;13.30;99.90
28608;DHT22;15802;45.654;13.804;2023-03-14T13:18:40;13.30;99.90
28608;DHT22;15802;45.654;13.804;2023-03-14T13:21:09;13.30;99.90
28608;DHT22;15802;45.654;13.804;2023-03-14T13:23:37;13.30;99.90
28608;DHT22;15802;45.654;13.804;2023-03-14T13:26:03;13.30;99.90
28608;DHT22;15802;45.654;13.804;2023-03-14T13:28:35;13.30;99.90
28608;DHT22;15802;45.654;13.804;2023-03-14T13:31:02;13.30;99.90
28608;DHT22;15802;45.654;13.804;2023-03-14T13:33:28;13.30;99.90
28608;DHT22;15802;45.654;13.804;2023-03-14T13:35:56;13.30;99.90
28608;DHT22;15802;45.654;13.804;2023-03-14T13:38:23;13.20;99.90
28608;DHT22;15802;45.654;13.804;2023-03-14T13:40:57;13.30;99.90
28608;DHT22;15802;45.654;13.804;2023-03-14T13:43:30;13.30;99.90
28608;DHT22;15802;45.654;13.804;2023-03-14T13:46:05;13.20;99.90
28608;DHT22;15802;45.654;13.804;2023-03-14T13:48:33;13.10;99.90
28608;DHT22;15802;45.654;13.804;2023-03-14T13:51:04;13.00;99.90
28608;DHT22;15802;45.654;13.804;2023-03-14T13:53:42;13.00;99.90
28608;DHT22;15802;45.654;13.804;2023-03-14T13:56:09;12.90;99.90
28608;DHT22;15802;45.654;13.804;2023-03-14T13:58:35;12.80;99.90
28608;DHT22;15802;45.654;13.804;2023-03-14T14:01:03;12.80;99.90
28608;DHT22;15802;45.654;13.804;2023-03-14T14:03:31;12.90;99.90
28608;DHT22;15802;45.654;13.804;2023-03-14T14:05:57;12.90;99.90
28608;DHT22;15802;45.654;13.804;2023-03-14T14:08:24;12.90;99.90
28608;DHT22;15802;45.654;13.804;2023-03-14T14:10:50;13.00;99.90
28608;DHT22;15802;45.654;13.804;2023-03-14T14:13:19;13.00;99.90
28608;DHT22;15802;45.654;13.804;2023-03-14T14:15:47;13.00;99.90
28608;DHT22;15802;45.654;13.804;2023-03-14T14:18:17;13.00;99.90
28608;DHT22;15802;45.654;13.804;2023-03-14T14:20:44;13.00;99.90
28608;DHT22;15802;45.654;13.804;2023-03-14T14:23:11;12.90;99.90
28608;DHT22;15802;45.654;13.804;2023-03-14T14:25:37;12.90;99.90
28608;DHT22;15802;45.654;13.804;2023-03-14T14:30:47;12.90;99.90
28608;DHT22;15802;45.654;13.804;2023-03-14T14:33:24;12.90;99.90
28608;DHT22;15802;45.654;13.804;2023-03-14T14:35:51;12.80;99.90
28608;DHT22;15802;45.654;13.804;2023-03-14T14:38:17;12.70;99.90
28608;DHT22;15802;45.654;13.804;2023-03-14T14:40:46;12.60;99.90
28608;DHT22;15802;45.654;13.804;2023-03-14T14:43:14;12.60;99.90
28608;DHT22;15802;45.654;13.804;2023-03-14T14:45:42;12.60;99.90
28608;DHT22;15802;45.654;13.804;2023-03-14T14:48:10;12.50;99.90
28608;DHT22;15802;45.654;13.804;2023-03-14T14:50:38;12.40;99.90
28608;DHT22;15802;45.654;13.804;2023-03-14T14:53:19;12.40;99.90
28608;DHT22;15802;45.654;13.804;2023-03-14T14:55:48;12.40;99.90
28608;DHT22;15802;45.654;13.804;2023-03-14T14:58:19;12.40;99.90
28608;DHT22;15802;45.654;13.804;2023-03-14T15:03:32;12.50;99.90
28608;DHT22;15802;45.654;13.804;2023-03-14T15:05:58;12.60;99.90
28608;DHT22;15802;45.654;13.804;2023-03-14T15:08:25;12.50;99.90
28608;DHT22;15802;45.654;13.804;2023-03-14T15:10:51;12.50;99.90
28608;DHT22;15802;45.654;13.804;2023-03-14T15:13:17;12.50;99.90
28608;DHT22;15802;45.654;13.804;2023-03-14T15:15:43;12.50;99.90
28608;DHT22;15802;45.654;13.804;2023-03-14T15:18:17;12.50;99.90
28608;DHT22;15802;45.654;13.804;2023-03-14T15:20:43;12.50;99.90
28608;DHT22;15802;45.654;13.804;2023-03-14T15:23:10;12.40;99.90
28608;DHT22;15802;45.654;13.804;2023-03-14T15:25:35;12.40;99.90
28608;DHT22;15802;45.654;13.804;2023-03-14T15:28:01;12.30;99.90
28608;DHT22;15802;45.654;13.804;2023-03-14T15:30:27;12.30;99.90
28608;DHT22;15802;45.654;13.804;2023-03-14T15:32:53;12.40;99.90
28608;DHT22;15802;45.654;13.804;2023-03-14T15:35:18;12.30;99.90
28608;DHT22;15802;45.654;13.804;2023-03-14T15:37:44;12.30;99.90
28608;DHT22;15802;45.654;13.804;2023-03-14T15:40:11;12.30;99.90
28608;DHT22;15802;45.654;13.804;2023-03-14T15:42:39;12.30;99.90